Time;durP1;ratioP1;P1;durP2;ratioP2;P2;SDS_P1;SDS_P2;PMS_P1;PMS_P2;Temp;Humidity;BMP_temperature;BMP_pressure;BME280_temperature;BME280_humidity;BME280_pressure;Samples;Min_cycle;Max_cycle;Signal;HPM_P1;HPM_P2
2023/08/02 00:01:10;;;;;;;4.90;2.00;;;;;;;;;;5099315;28;20324;-91
2023/08/02 00:03:37;;;;;;;3.20;2.23;;;;;;;;;;5098454;28;20725;-90
2023/08/02 00:06:04;;;;;;;3.80;2.30;;;;;;;;;;5097946;28;20685;-89
2023/08/02 00:08:31;;;;;;;2.77;1.93;;;;;;;;;;5085079;28;20275;-87
2023/08/02 00:10:58;;;;;;;2.07;1.73;;;;;;;;;;5078444;28;20208;-89
2023/08/02 00:13:25;;;;;;;5.73;2.03;;;;;;;;;;5077656;28;20592;-90
2023/08/02 00:15:54;;;;;;;3.70;2.37;;;;;;;;;;5078685;28;20683;-90
2023/08/02 00:18:21;;;;;;;3.53;1.97;;;;;;;;;;5078016;28;20233;-88
2023/08/02 00:20:50;;;;;;;3.57;2.10;;;;;;;;;;5078275;28;20229;-88
2023/08/02 00:23:17;;;;;;;4.23;2.30;;;;;;;;;;5077432;28;20236;-90
2023/08/02 00:25:44;;;;;;;3.03;2.10;;;;;;;;;;5078544;28;20209;-91
2023/08/02 00:28:12;;;;;;;3.93;2.07;;;;;;;;;;5089624;28;20224;-89
2023/08/02 00:30:45;;;;;;;2.77;2.20;;;;;;;;;;5097411;28;20287;-90
2023/08/02 00:33:13;;;;;;;2.03;1.80;;;;;;;;;;5085016;28;20275;-89
2023/08/02 00:35:44;;;;;;;3.63;2.03;;;;;;;;;;5077884;28;20306;-89
2023/08/02 00:38:11;;;;;;;3.57;1.90;;;;;;;;;;5093748;28;20240;-89
2023/08/02 00:40:38;;;;;;;2.60;2.17;;;;;;;;;;5096456;28;20228;-90
2023/08/02 00:43:06;;;;;;;5.90;2.20;;;;;;;;;;5095724;28;20224;-89
2023/08/02 00:45:33;;;;;;;7.60;1.90;;;;;;;;;;5078887;28;20564;-90
2023/08/02 00:48:01;;;;;;;4.33;2.10;;;;;;;;;;5076435;28;20236;-88
2023/08/02 00:50:30;;;;;;;7.10;2.00;;;;;;;;;;5077290;28;20194;-89
2023/08/02 00:52:57;;;;;;;2.27;1.90;;;;;;;;;;5081963;28;20222;-90
2023/08/02 00:55:25;;;;;;;2.57;2.00;;;;;;;;;;5097475;28;20213;-89
2023/08/02 00:57:52;;;;;;;3.57;2.20;;;;;;;;;;5096660;28;20243;-90
2023/08/02 01:00:19;;;;;;;3.43;1.93;;;;;;;;;;5085259;28;20659;-89
2023/08/02 01:02:46;;;;;;;5.50;2.17;;;;;;;;;;5076090;28;20241;-90
2023/08/02 01:05:14;;;;;;;4.03;2.40;;;;;;;;;;5076524;28;20255;-90
2023/08/02 01:07:47;;;;;;;3.77;2.27;;;;;;;;;;5076465;28;20243;-91
2023/08/02 01:10:17;;;;;;;4.67;2.57;;;;;;;;;;5094979;28;20228;-89
2023/08/02 01:12:46;;;;;;;3.17;2.20;;;;;;;;;;5076628;28;20711;-89
2023/08/02 01:15:14;;;;;;;2.80;1.87;;;;;;;;;;5077050;28;20211;-89
2023/08/02 01:17:42;;;;;;;2.00;1.90;;;;;;;;;;5076330;28;20234;-91
2023/08/02 01:20:11;;;;;;;5.27;2.17;;;;;;;;;;5076441;28;20569;-90
2023/08/02 01:22:38;;;;;;;3.50;1.80;;;;;;;;;;5076090;28;20232;-88
2023/08/02 01:25:06;;;;;;;1.97;1.70;;;;;;;;;;5080700;28;20203;-90
2023/08/02 01:27:34;;;;;;;5.85;2.08;;;;;;;;;;5096222;28;20620;-89
2023/08/02 01:30:02;;;;;;;4.83;2.13;;;;;;;;;;5097123;28;20283;-89
2023/08/02 01:32:29;;;;;;;4.65;1.95;;;;;;;;;;5096202;28;20320;-89
2023/08/02 01:34:57;;;;;;;3.70;2.10;;;;;;;;;;5096730;28;20189;-89
2023/08/02 01:37:25;;;;;;;2.50;2.00;;;;;;;;;;5096099;28;20227;-89
2023/08/02 01:39:52;;;;;;;2.27;2.07;;;;;;;;;;5096369;28;20212;-88
2023/08/02 01:42:20;;;;;;;2.33;2.13;;;;;;;;;;5096209;28;20232;-90
2023/08/02 01:44:47;;;;;;;5.33;2.30;;;;;;;;;;5097832;28;20291;-90
2023/08/02 01:47:15;;;;;;;2.70;2.23;;;;;;;;;;5096478;28;20307;-89
2023/08/02 01:49:42;;;;;;;6.07;2.07;;;;;;;;;;5095783;28;20232;-90
2023/08/02 01:52:10;;;;;;;2.50;2.07;;;;;;;;;;5094413;28;20224;-89
2023/08/02 01:54:38;;;;;;;4.93;2.43;;;;;;;;;;5096351;28;20262;-89
2023/08/02 01:57:05;;;;;;;4.47;2.40;;;;;;;;;;5095727;28;20327;-90
2023/08/02 01:59:32;;;;;;;3.13;2.10;;;;;;;;;;5096340;28;20220;-90
2023/08/02 02:01:59;;;;;;;3.40;2.37;;;;;;;;;;5095574;28;20702;-89
2023/08/02 02:04:27;;;;;;;2.80;2.23;;;;;;;;;;5096417;28;20208;-90
2023/08/02 02:06:54;;;;;;;2.60;2.40;;;;;;;;;;5095698;28;20228;-89
2023/08/02 02:09:21;;;;;;;2.57;1.80;;;;;;;;;;5096355;28;20217;-89
2023/08/02 02:11:50;;;;;;;4.67;2.47;;;;;;;;;;5095747;28;20595;-89
2023/08/02 02:14:17;;;;;;;2.43;1.90;;;;;;;;;;5093530;28;20242;-89
2023/08/02 02:16:44;;;;;;;3.97;2.43;;;;;;;;;;5075712;28;20562;-90
2023/08/02 02:19:11;;;;;;;3.20;2.13;;;;;;;;;;5084235;28;20213;-90
2023/08/02 02:21:38;;;;;;;3.30;2.10;;;;;;;;;;5095772;28;20256;-90
2023/08/02 02:24:05;;;;;;;6.07;2.20;;;;;;;;;;5095069;28;20666;-89
2023/08/02 02:26:32;;;;;;;4.80;2.20;;;;;;;;;;5075458;28;20207;-90
2023/08/02 02:29:01;;;;;;;3.30;2.37;;;;;;;;;;5087113;28;20221;-90
2023/08/02 02:31:28;;;;;;;7.23;2.40;;;;;;;;;;5085197;28;20205;-90
2023/08/02 02:33:55;;;;;;;2.33;2.07;;;;;;;;;;5075970;28;20205;-90
2023/08/02 02:36:22;;;;;;;3.00;2.10;;;;;;;;;;5095102;28;20210;-88
2023/08/02 02:38:50;;;;;;;3.83;1.73;;;;;;;;;;5085047;28;20201;-90
2023/08/02 02:41:17;;;;;;;2.40;2.20;;;;;;;;;;5055409;28;20216;-89
2023/08/02 02:43:44;;;;;;;2.87;1.90;;;;;;;;;;5054629;28;20233;-91
2023/08/02 02:46:13;;;;;;;4.37;2.17;;;;;;;;;;5054732;28;20205;-90
2023/08/02 02:48:40;;;;;;;3.93;2.10;;;;;;;;;;5053396;28;20235;-90
2023/08/02 02:51:07;;;;;;;4.30;1.83;;;;;;;;;;5055160;28;20198;-90
2023/08/02 02:53:34;;;;;;;2.57;2.03;;;;;;;;;;5055107;28;20726;-91
2023/08/02 02:56:01;;;;;;;5.73;2.20;;;;;;;;;;5063001;28;20194;-88
2023/08/02 02:58:28;;;;;;;2.80;1.83;;;;;;;;;;5074649;28;20237;-89
2023/08/02 03:00:57;;;;;;;3.60;2.00;;;;;;;;;;5076202;28;20208;-88
2023/08/02 03:03:25;;;;;;;3.17;2.40;;;;;;;;;;5078947;28;20236;-90
2023/08/02 03:05:54;;;;;;;2.70;1.87;;;;;;;;;;5089827;28;20208;-90
2023/08/02 03:08:21;;;;;;;3.23;2.50;;;;;;;;;;5097939;28;20258;-90
2023/08/02 03:10:48;;;;;;;3.53;1.73;;;;;;;;;;5099571;28;20204;-90
2023/08/02 03:13:15;;;;;;;2.53;2.27;;;;;;;;;;5085526;28;20224;-90
2023/08/02 03:15:42;;;;;;;6.10;2.40;;;;;;;;;;5086391;28;20292;-90
2023/08/02 03:18:09;;;;;;;4.73;2.30;;;;;;;;;;5079362;28;20235;-91
2023/08/02 03:20:39;;;;;;;2.97;2.10;;;;;;;;;;5092619;28;20658;-91
2023/08/02 03:23:07;;;;;;;2.90;2.40;;;;;;;;;;5098842;28;20244;-90
2023/08/02 03:25:34;;;;;;;3.07;1.90;;;;;;;;;;5067214;28;20201;-90
2023/08/02 03:28:01;;;;;;;3.87;2.17;;;;;;;;;;5098860;28;20233;-89
2023/08/02 03:30:28;;;;;;;5.93;2.20;;;;;;;;;;5099361;28;20205;-90
2023/08/02 03:32:55;;;;;;;4.93;2.33;;;;;;;;;;5098932;28;20232;-89
2023/08/02 03:35:22;;;;;;;3.00;2.07;;;;;;;;;;5099189;28;20227;-90
2023/08/02 03:37:51;;;;;;;2.40;2.07;;;;;;;;;;5098221;28;20246;-88
2023/08/02 03:40:19;;;;;;;2.47;2.27;;;;;;;;;;5098022;28;20200;-88
2023/08/02 03:42:46;;;;;;;3.33;2.10;;;;;;;;;;5097603;28;20255;-88
2023/08/02 03:45:13;;;;;;;3.67;2.50;;;;;;;;;;5081009;28;20205;-88
2023/08/02 03:47:40;;;;;;;3.77;1.83;;;;;;;;;;5085339;28;20232;-88
2023/08/02 03:50:08;;;;;;;4.33;1.90;;;;;;;;;;5094000;22;20237;-88
2023/08/02 03:52:35;;;;;;;2.40;2.20;;;;;;;;;;5070926;28;20694;-89
2023/08/02 03:55:03;;;;;;;3.13;2.07;;;;;;;;;;5077027;28;20205;-90
2023/08/02 03:57:30;;;;;;;3.73;2.03;;;;;;;;;;5075454;28;20230;-89
2023/08/02 03:59:57;;;;;;;2.43;2.20;;;;;;;;;;5076704;28;20225;-90
2023/08/02 04:02:24;;;;;;;3.60;2.10;;;;;;;;;;5075066;28;20229;-90
2023/08/02 04:04:51;;;;;;;2.77;2.10;;;;;;;;;;5075449;28;20374;-90
2023/08/02 04:07:18;;;;;;;2.83;2.10;;;;;;;;;;5085944;28;20229;-90
2023/08/02 04:09:45;;;;;;;1.90;1.70;;;;;;;;;;5081450;28;20221;-90
2023/08/02 04:12:17;;;;;;;3.10;1.67;;;;;;;;;;5073656;28;20237;-90
2023/08/02 04:14:44;;;;;;;3.00;1.90;;;;;;;;;;5079740;28;20689;-91
2023/08/02 04:17:11;;;;;;;4.00;2.00;;;;;;;;;;5079842;28;20234;-90
2023/08/02 04:19:38;;;;;;;4.20;2.10;;;;;;;;;;5075317;28;20231;-90
2023/08/02 04:22:05;;;;;;;2.63;2.10;;;;;;;;;;5074753;28;20229;-90
2023/08/02 04:24:32;;;;;;;3.83;2.00;;;;;;;;;;5075276;28;20208;-90
2023/08/02 04:26:59;;;;;;;4.20;2.20;;;;;;;;;;5074828;28;20229;-90
2023/08/02 04:29:28;;;;;;;2.83;1.70;;;;;;;;;;5075072;28;20225;-88
2023/08/02 04:31:55;;;;;;;2.57;1.83;;;;;;;;;;5074372;28;20232;-89
2023/08/02 04:34:22;;;;;;;6.80;1.80;;;;;;;;;;5074863;28;20209;-90
2023/08/02 04:36:49;;;;;;;2.07;1.87;;;;;;;;;;5074385;28;20232;-90
2023/08/02 04:39:16;;;;;;;4.47;1.90;;;;;;;;;;5075013;28;20259;-90
2023/08/02 04:41:43;;;;;;;2.00;1.80;;;;;;;;;;5074522;28;20233;-90
2023/08/02 04:44:10;;;;;;;2.00;1.80;;;;;;;;;;5074606;28;20666;-90
2023/08/02 04:46:39;;;;;;;6.77;2.17;;;;;;;;;;5080797;28;20209;-90
2023/08/02 04:49:06;;;;;;;2.53;1.90;;;;;;;;;;5085596;28;20229;-92
2023/08/02 04:51:36;;;;;;;5.83;2.13;;;;;;;;;;5075456;28;20247;-92
2023/08/02 04:54:03;;;;;;;3.30;2.00;;;;;;;;;;5076053;28;20205;-92
2023/08/02 04:56:30;;;;;;;3.43;2.10;;;;;;;;;;5072182;28;20572;-92
2023/08/02 04:58:57;;;;;;;2.53;1.80;;;;;;;;;;5074081;28;20217;-92
2023/08/02 05:01:24;;;;;;;1.60;1.50;;;;;;;;;;5073609;28;20667;-89
2023/08/02 05:03:53;;;;;;;1.70;1.60;;;;;;;;;;5074097;28;20667;-91
2023/08/02 05:06:20;;;;;;;3.10;2.30;;;;;;;;;;5074105;28;20209;-91
2023/08/02 05:08:47;;;;;;;5.60;2.80;;;;;;;;;;5073870;28;20707;-91
2023/08/02 05:11:14;;;;;;;2.63;1.83;;;;;;;;;;5074214;28;20696;-91
2023/08/02 05:13:41;;;;;;;3.37;2.00;;;;;;;;;;5073654;28;20232;-89
2023/08/02 05:16:12;;;;;;;2.17;1.83;;;;;;;;;;5074349;28;20213;-91
2023/08/02 05:18:40;;;;;;;3.37;2.07;;;;;;;;;;5072438;28;20575;-90
2023/08/02 05:21:12;;;;;;;2.53;1.80;;;;;;;;;;5073854;28;20205;-90
2023/08/02 05:23:39;;;;;;;1.83;1.63;;;;;;;;;;5072652;28;20303;-90
2023/08/02 05:26:06;;;;;;;3.27;2.07;;;;;;;;;;5073171;28;20679;-90
2023/08/02 05:28:34;;;;;;;2.90;1.80;;;;;;;;;;5072986;28;20316;-90
2023/08/02 05:31:01;;;;;;;2.10;1.90;;;;;;;;;;5073524;28;20205;-91
2023/08/02 05:33:28;;;;;;;3.83;1.90;;;;;;;;;;5072845;28;20240;-91
2023/08/02 05:35:55;;;;;;;2.20;2.00;;;;;;;;;;5073682;28;20201;-90
2023/08/02 05:38:23;;;;;;;2.50;2.20;;;;;;;;;;5073329;28;20623;-90
2023/08/02 05:40:50;;;;;;;2.83;2.17;;;;;;;;;;5074006;28;20572;-90
2023/08/02 05:43:17;;;;;;;2.43;2.03;;;;;;;;;;5072526;28;20729;-90
2023/08/02 05:45:45;;;;;;;2.33;2.00;;;;;;;;;;5073378;28;20212;-90
2023/08/02 05:48:12;;;;;;;3.50;2.10;;;;;;;;;;5073098;28;20232;-89
2023/08/02 05:50:39;;;;;;;3.07;2.10;;;;;;;;;;5065406;28;20216;-90
2023/08/02 05:53:06;;;;;;;3.67;2.00;;;;;;;;;;5073973;28;20229;-88
2023/08/02 05:55:35;;;;;;;2.80;1.90;;;;;;;;;;5074862;28;20213;-89
2023/08/02 05:58:03;;;;;;;1.90;1.70;;;;;;;;;;5073998;28;20253;-88
2023/08/02 06:00:30;;;;;;;3.63;2.40;;;;;;;;;;5076410;28;20205;-89
2023/08/02 06:02:57;;;;;;;5.00;2.17;;;;;;;;;;5082706;28;20233;-89
2023/08/02 06:05:24;;;;;;;2.27;2.07;;;;;;;;;;5080837;28;20202;-89
2023/08/02 06:07:51;;;;;;;3.57;2.10;;;;;;;;;;5079149;28;20229;-89
2023/08/02 06:10:18;;;;;;;2.60;1.97;;;;;;;;;;5075137;28;20233;-91
2023/08/02 06:12:47;;;;;;;4.27;1.93;;;;;;;;;;5075070;28;20238;-89
2023/08/02 06:15:14;;;;;;;2.87;2.13;;;;;;;;;;5068004;28;20206;-89
2023/08/02 06:17:41;;;;;;;2.63;2.43;;;;;;;;;;5081635;28;20214;-90
2023/08/02 06:20:09;;;;;;;5.00;2.13;;;;;;;;;;5066132;28;20232;-90
2023/08/02 06:22:36;;;;;;;2.07;1.87;;;;;;;;;;5059047;28;20230;-90
2023/08/02 06:25:03;;;;;;;3.40;2.30;;;;;;;;;;5059772;28;20209;-90
2023/08/02 06:27:30;;;;;;;8.10;2.53;;;;;;;;;;5069588;28;20264;-91
2023/08/02 06:29:59;;;;;;;2.77;2.20;;;;;;;;;;5076849;28;20304;-90
2023/08/02 06:32:27;;;;;;;2.43;2.23;;;;;;;;;;5078539;28;20225;-91
2023/08/02 06:34:54;;;;;;;3.27;1.97;;;;;;;;;;5078421;28;20293;-90
2023/08/02 06:37:22;;;;;;;2.40;2.20;;;;;;;;;;5077371;28;20228;-90
2023/08/02 06:39:49;;;;;;;2.23;1.83;;;;;;;;;;5069443;28;20232;-90
2023/08/02 06:42:16;;;;;;;2.87;2.20;;;;;;;;;;5060616;28;20687;-90
2023/08/02 06:44:43;;;;;;;2.70;2.50;;;;;;;;;;5072297;28;20216;-90
2023/08/02 06:47:12;;;;;;;3.70;2.20;;;;;;;;;;5077164;28;20233;-89
2023/08/02 06:49:39;;;;;;;2.70;1.97;;;;;;;;;;5075677;28;20233;-89
2023/08/02 06:52:06;;;;;;;3.57;2.10;;;;;;;;;;5076181;28;20233;-90
2023/08/02 06:54:33;;;;;;;2.83;2.20;;;;;;;;;;5076934;28;20724;-90
2023/08/02 06:57:00;;;;;;;3.07;2.10;;;;;;;;;;5075458;28;20236;-90
2023/08/02 06:59:27;;;;;;;2.50;2.30;;;;;;;;;;5076047;28;20734;-90
2023/08/02 07:01:56;;;;;;;3.87;2.20;;;;;;;;;;5089961;28;20236;-90
2023/08/02 07:04:24;;;;;;;4.40;2.17;;;;;;;;;;5080704;28;20206;-90
2023/08/02 07:06:51;;;;;;;2.17;1.97;;;;;;;;;;5077285;28;20240;-90
2023/08/02 07:09:18;;;;;;;2.17;1.90;;;;;;;;;;5077340;28;20691;-90
2023/08/02 07:11:45;;;;;;;3.77;1.90;;;;;;;;;;5080225;28;20442;-89
2023/08/02 07:14:12;;;;;;;2.20;2.00;;;;;;;;;;5081330;28;20206;-89
2023/08/02 07:16:39;;;;;;;4.53;1.80;;;;;;;;;;5077058;28;20216;-90
2023/08/02 07:19:07;;;;;;;2.37;1.93;;;;;;;;;;5076400;28;20218;-88
2023/08/02 07:21:35;;;;;;;2.63;1.83;;;;;;;;;;5068187;28;20214;-88
2023/08/02 07:24:02;;;;;;;2.50;1.93;;;;;;;;;;5080530;28;20228;-87
2023/08/02 07:26:29;;;;;;;2.80;2.00;;;;;;;;;;5094123;28;20213;-87
2023/08/02 07:28:56;;;;;;;2.30;2.10;;;;;;;;;;5079995;28;20579;-88
2023/08/02 07:31:23;;;;;;;2.13;1.93;;;;;;;;;;5073239;28;20206;-87
2023/08/02 07:33:51;;;;;;;2.43;2.00;;;;;;;;;;5073710;28;20209;-87
2023/08/02 07:36:19;;;;;;;1.90;1.80;;;;;;;;;;5082223;28;20197;-87
2023/08/02 07:38:48;;;;;;;3.20;1.70;;;;;;;;;;5077133;28;20252;-87
2023/08/02 07:41:16;;;;;;;3.43;1.87;;;;;;;;;;5073575;28;20202;-88
2023/08/02 07:43:43;;;;;;;2.00;1.77;;;;;;;;;;5071598;28;20229;-87
2023/08/02 07:46:16;;;;;;;4.53;1.83;;;;;;;;;;5089252;28;20200;-88
2023/08/02 07:48:43;;;;;;;2.93;1.60;;;;;;;;;;5085067;28;20229;-86
2023/08/02 07:51:10;;;;;;;1.50;1.40;;;;;;;;;;5087151;28;20205;-89
2023/08/02 07:53:37;;;;;;;1.80;1.70;;;;;;;;;;5106074;28;20228;-89
2023/08/02 07:56:07;;;;;;;2.03;1.63;;;;;;;;;;5084280;28;20213;-89
2023/08/02 07:58:34;;;;;;;2.13;1.90;;;;;;;;;;5089211;28;20232;-88
2023/08/02 08:01:05;;;;;;;1.57;1.47;;;;;;;;;;5099196;28;20204;-89
2023/08/02 08:03:32;;;;;;;1.60;1.50;;;;;;;;;;5082157;28;20225;-89
2023/08/02 08:06:00;;;;;;;1.60;1.50;;;;;;;;;;5085578;28;20204;-89
2023/08/02 08:08:27;;;;;;;1.53;1.43;;;;;;;;;;5078142;28;20244;-89
2023/08/02 08:10:54;;;;;;;1.83;1.73;;;;;;;;;;5078686;28;20213;-89
2023/08/02 08:13:22;;;;;;;1.70;1.60;;;;;;;;;;5085977;28;20694;-88
2023/08/02 08:15:49;;;;;;;1.73;1.63;;;;;;;;;;5075348;28;20208;-89
2023/08/02 08:18:16;;;;;;;7.00;1.77;;;;;;;;;;5083835;28;20233;-88
2023/08/02 08:20:43;;;;;;;1.77;1.67;;;;;;;;;;5078336;28;20205;-88
2023/08/02 08:23:11;;;;;;;3.47;1.70;;;;;;;;;;5078726;28;20775;-88
2023/08/02 08:25:38;;;;;;;2.50;1.70;;;;;;;;;;5089330;28;20230;-89
2023/08/02 08:28:05;;;;;;;2.03;1.83;;;;;;;;;;5072133;28;20365;-87
2023/08/02 08:30:34;;;;;;;1.60;1.50;;;;;;;;;;5067757;28;20236;-90
2023/08/02 08:33:01;;;;;;;2.27;1.80;;;;;;;;;;5067033;28;20218;-90
2023/08/02 08:35:28;;;;;;;4.80;2.10;;;;;;;;;;5067912;28;20212;-90
2023/08/02 08:37:55;;;;;;;1.60;1.50;;;;;;;;;;5078585;28;20228;-89
2023/08/02 08:40:22;;;;;;;2.50;1.83;;;;;;;;;;5059145;28;20222;-89
2023/08/02 08:42:50;;;;;;;2.33;1.97;;;;;;;;;;5065864;28;20229;-89
2023/08/02 08:45:19;;;;;;;2.50;1.97;;;;;;;;;;5067356;28;20210;-90
2023/08/02 08:47:48;;;;;;;1.80;1.70;;;;;;;;;;5060389;28;20714;-89
2023/08/02 08:50:15;;;;;;;1.70;1.60;;;;;;;;;;5070827;28;20236;-89
2023/08/02 08:52:42;;;;;;;1.58;1.48;;;;;;;;;;5072151;28;20620;-90
2023/08/02 08:55:10;;;;;;;2.40;1.67;;;;;;;;;;5063862;28;20209;-89
2023/08/02 08:57:37;;;;;;;1.90;1.80;;;;;;;;;;5071587;28;20699;-88
2023/08/02 09:00:05;;;;;;;1.55;1.45;;;;;;;;;;5054755;28;20228;-89
2023/08/02 09:02:32;;;;;;;1.47;1.37;;;;;;;;;;5067945;28;20990;-88
2023/08/02 09:05:03;;;;;;;1.70;1.60;;;;;;;;;;5073058;28;20210;-89
2023/08/02 09:07:30;;;;;;;3.57;1.27;;;;;;;;;;5073469;28;20240;-88
2023/08/02 09:09:57;;;;;;;1.87;1.50;;;;;;;;;;5063959;28;20225;-88
2023/08/02 09:12:47;;;;;;;1.73;1.40;;;;;;;;;;5055962;28;20229;-89
2023/08/02 09:15:15;;;;;;;1.47;1.37;;;;;;;;;;5065592;28;20224;-89
2023/08/02 09:17:49;;;;;;;1.83;1.30;;;;;;;;;;5073526;28;20237;-89
2023/08/02 09:20:19;;;;;;;1.45;1.35;;;;;;;;;;5060923;28;20224;-88
2023/08/02 09:22:46;;;;;;;3.17;1.57;;;;;;;;;;5073729;28;20233;-89
2023/08/02 09:25:23;;;;;;;1.63;1.33;;;;;;;;;;5064762;28;20212;-89
2023/08/02 09:27:51;;;;;;;2.40;1.30;;;;;;;;;;5068367;28;20235;-89
2023/08/02 09:30:26;;;;;;;1.48;1.17;;;;;;;;;;5077379;28;20229;-89
2023/08/02 09:33:00;;;;;;;1.67;1.20;;;;;;;;;;5062794;28;20232;-90
2023/08/02 09:35:32;;;;;;;1.50;1.40;;;;;;;;;;5076962;28;20197;-89
2023/08/02 09:37:59;;;;;;;1.45;1.35;;;;;;;;;;5071245;28;20704;-90
2023/08/02 09:40:35;;;;;;;2.45;1.40;;;;;;;;;;5064985;28;20201;-90
2023/08/02 09:43:03;;;;;;;1.10;1.10;;;;;;;;;;5071312;28;20253;-89
2023/08/02 09:45:33;;;;;;;1.03;1.03;;;;;;;;;;5073759;28;20201;-89
2023/08/02 09:48:01;;;;;;;1.40;1.30;;;;;;;;;;5069103;28;20233;-90
2023/08/02 09:50:30;;;;;;;1.30;1.30;;;;;;;;;;5072861;28;20209;-79
2023/08/02 09:52:57;;;;;;;1.17;1.17;;;;;;;;;;5070837;28;20309;-80
2023/08/02 09:55:24;;;;;;;1.35;1.15;;;;;;;;;;5055137;28;20198;-80
2023/08/02 09:57:51;;;;;;;1.58;1.30;;;;;;;;;;5070196;28;20236;-80
2023/08/02 10:00:19;;;;;;;1.23;1.17;;;;;;;;;;5061973;28;20222;-80
2023/08/02 10:02:47;;;;;;;1.40;1.30;;;;;;;;;;5060683;28;20234;-81
2023/08/02 10:05:14;;;;;;;1.65;1.05;;;;;;;;;;5064804;28;20228;-81
2023/08/02 10:07:45;;;;;;;1.30;1.20;;;;;;;;;;5067123;28;20239;-80
2023/08/02 10:10:14;;;;;;;2.10;1.40;;;;;;;;;;5065004;28;20644;-81
2023/08/02 10:12:42;;;;;;;1.20;1.17;;;;;;;;;;5060731;28;20233;-80
2023/08/02 10:15:09;;;;;;;1.02;1.02;;;;;;;;;;5059576;28;20286;-80
2023/08/02 10:17:37;;;;;;;1.08;1.08;;;;;;;;;;5067850;28;20233;-80
2023/08/02 10:20:05;;;;;;;1.80;1.25;;;;;;;;;;5062831;28;20246;-80
2023/08/02 10:22:32;;;;;;;1.38;1.27;;;;;;;;;;5061605;28;20257;-80
2023/08/02 10:25:01;;;;;;;1.17;1.17;;;;;;;;;;5051246;28;20233;-80
2023/08/02 10:27:28;;;;;;;1.10;1.10;;;;;;;;;;5058541;28;20225;-80
2023/08/02 10:29:56;;;;;;;0.93;0.93;;;;;;;;;;5067380;28;20225;-80
2023/08/02 10:32:23;;;;;;;1.10;1.10;;;;;;;;;;5057530;28;20221;-81
2023/08/02 10:34:51;;;;;;;1.45;1.15;;;;;;;;;;5068048;28;20687;-81
2023/08/02 10:37:19;;;;;;;1.20;1.17;;;;;;;;;;5065487;28;20252;-80
2023/08/02 10:39:55;;;;;;;1.10;1.10;;;;;;;;;;5062573;28;20646;-80
2023/08/02 10:42:24;;;;;;;1.23;1.15;;;;;;;;;;5062513;28;20225;-81
2023/08/02 10:45:10;;;;;;;1.60;1.35;;;;;;;;;;5058388;28;20729;-81
2023/08/02 10:47:37;;;;;;;2.72;1.13;;;;;;;;;;5067497;28;20241;-81
2023/08/02 10:50:05;;;;;;;0.85;0.85;;;;;;;;;;5066243;28;20237;-81
2023/08/02 10:52:33;;;;;;;0.90;0.90;;;;;;;;;;5058212;28;20238;-80
2023/08/02 10:55:15;;;;;;;1.40;1.30;;;;;;;;;;5057095;28;20255;-80
2023/08/02 10:58:05;;;;;;;1.00;1.00;;;;;;;;;;5068096;28;20240;-81
2023/08/02 11:00:32;;;;;;;0.85;0.85;;;;;;;;;;5050729;28;20206;-81
2023/08/02 11:03:00;;;;;;;1.40;1.30;;;;;;;;;;5067944;28;20753;-80
2023/08/02 11:05:40;;;;;;;1.45;1.20;;;;;;;;;;5066441;28;20225;-81
2023/08/02 11:08:08;;;;;;;1.85;1.38;;;;;;;;;;5069935;28;20224;-79
2023/08/02 11:10:46;;;;;;;1.20;1.10;;;;;;;;;;5061965;28;20214;-80
2023/08/02 11:13:15;;;;;;;1.40;1.15;;;;;;;;;;5064051;28;20224;-81
2023/08/02 11:15:42;;;;;;;1.42;1.15;;;;;;;;;;5069503;28;20210;-80
2023/08/02 11:18:09;;;;;;;1.35;1.25;;;;;;;;;;5063181;28;20229;-81
2023/08/02 11:20:37;;;;;;;1.25;1.23;;;;;;;;;;5070406;28;20205;-81
2023/08/02 11:23:04;;;;;;;1.23;1.23;;;;;;;;;;5064790;28;20228;-82
2023/08/02 11:25:31;;;;;;;1.02;1.02;;;;;;;;;;5074232;28;20237;-81
2023/08/02 11:28:03;;;;;;;1.38;1.27;;;;;;;;;;5062279;28;20226;-81
2023/08/02 11:30:33;;;;;;;1.35;1.15;;;;;;;;;;5074424;28;20283;-81
2023/08/02 11:33:00;;;;;;;2.05;1.15;;;;;;;;;;5062397;28;20224;-81
2023/08/02 11:35:27;;;;;;;1.00;0.90;;;;;;;;;;5054202;28;20202;-81
2023/08/02 11:37:54;;;;;;;0.85;0.85;;;;;;;;;;5073352;28;20237;-81
2023/08/02 11:40:21;;;;;;;0.95;0.95;;;;;;;;;;5065499;28;20205;-80
2023/08/02 11:42:50;;;;;;;0.88;0.88;;;;;;;;;;5057066;28;20707;-80
2023/08/02 11:45:28;;;;;;;1.50;1.08;;;;;;;;;;5065716;28;20232;-80
2023/08/02 11:47:56;;;;;;;1.02;1.00;;;;;;;;;;5065174;28;20225;-81
2023/08/02 11:50:24;;;;;;;1.00;1.00;;;;;;;;;;5066722;28;20210;-81
2023/08/02 11:52:51;;;;;;;1.10;1.10;;;;;;;;;;5061860;28;20260;-80
2023/08/02 11:55:21;;;;;;;1.42;1.23;;;;;;;;;;5053825;28;20201;-81
2023/08/02 11:57:48;;;;;;;2.42;1.17;;;;;;;;;;5054920;28;20230;-80
2023/08/02 12:00:16;;;;;;;1.15;1.05;;;;;;;;;;5059426;28;20699;-81
2023/08/02 12:02:44;;;;;;;0.90;0.90;;;;;;;;;;5061288;28;20232;-80
2023/08/02 12:05:21;;;;;;;1.13;1.13;;;;;;;;;;5061980;28;20751;-80
2023/08/02 12:07:48;;;;;;;1.20;1.10;;;;;;;;;;5071215;28;20606;-81
2023/08/02 12:10:28;;;;;;;1.45;1.08;;;;;;;;;;5068006;28;20279;-79
2023/08/02 12:12:55;;;;;;;1.00;1.00;;;;;;;;;;5069579;28;20241;-80
2023/08/02 12:15:22;;;;;;;3.00;1.20;;;;;;;;;;5059555;28;20209;-81
2023/08/02 12:18:01;;;;;;;0.80;0.80;;;;;;;;;;5054625;28;20229;-81
2023/08/02 12:20:34;;;;;;;1.38;1.20;;;;;;;;;;5069344;28;20559;-81
2023/08/02 12:23:01;;;;;;;1.20;1.20;;;;;;;;;;5052838;28;20226;-80
2023/08/02 12:25:28;;;;;;;1.50;1.40;;;;;;;;;;5067794;28;20225;-81
2023/08/02 12:28:05;;;;;;;1.45;1.35;;;;;;;;;;5055874;28;20238;-80
2023/08/02 12:30:32;;;;;;;1.48;1.38;;;;;;;;;;5064933;28;20206;-80
2023/08/02 12:32:59;;;;;;;1.33;1.23;;;;;;;;;;5072067;28;20225;-81
2023/08/02 12:35:26;;;;;;;1.48;1.38;;;;;;;;;;5065498;28;20202;-81
2023/08/02 12:37:55;;;;;;;1.42;1.33;;;;;;;;;;5054978;28;20653;-81
2023/08/02 12:40:22;;;;;;;1.70;1.60;;;;;;;;;;5067046;28;20571;-80
2023/08/02 12:42:49;;;;;;;1.80;1.55;;;;;;;;;;5072382;28;20241;-80
2023/08/02 12:45:16;;;;;;;1.52;1.42;;;;;;;;;;5056159;28;20229;-81
2023/08/02 12:47:43;;;;;;;1.90;1.70;;;;;;;;;;5070995;28;20251;-80
2023/08/02 12:50:10;;;;;;;2.72;2.40;;;;;;;;;;5066108;28;20229;-80
2023/08/02 12:52:37;;;;;;;2.15;1.75;;;;;;;;;;5068656;28;20233;-81
2023/08/02 12:55:06;;;;;;;2.25;2.05;;;;;;;;;;5071721;28;20202;-80
2023/08/02 12:57:33;;;;;;;1.63;1.52;;;;;;;;;;5075268;28;20302;-80
2023/08/02 13:00:00;;;;;;;2.97;1.77;;;;;;;;;;5069923;28;20228;-80
2023/08/02 13:02:27;;;;;;;1.75;1.52;;;;;;;;;;5071555;28;20221;-80
2023/08/02 13:04:54;;;;;;;1.70;1.60;;;;;;;;;;5055720;28;20229;-79
2023/08/02 13:07:21;;;;;;;1.55;1.45;;;;;;;;;;5057441;28;20237;-80
2023/08/02 13:09:49;;;;;;;2.40;2.20;;;;;;;;;;5056607;28;20229;-80
2023/08/02 13:12:17;;;;;;;2.03;1.83;;;;;;;;;;5058448;28;20312;-80
2023/08/02 13:14:44;;;;;;;3.22;1.90;;;;;;;;;;5060484;28;20209;-80
2023/08/02 13:17:13;;;;;;;2.08;1.85;;;;;;;;;;5056433;28;20232;-80
2023/08/02 13:19:40;;;;;;;2.72;1.83;;;;;;;;;;5072223;28;20279;-81
2023/08/02 13:22:08;;;;;;;2.28;2.10;;;;;;;;;;5066904;28;20275;-80
2023/08/02 13:24:35;;;;;;;2.00;1.88;;;;;;;;;;5064684;28;20233;-79
2023/08/02 13:27:02;;;;;;;1.88;1.77;;;;;;;;;;5071435;28;20609;-78
2023/08/02 13:29:31;;;;;;;1.77;1.60;;;;;;;;;;5063427;28;20229;-79
2023/08/02 13:31:58;;;;;;;3.08;1.70;;;;;;;;;;5069248;28;20225;-80
2023/08/02 13:34:25;;;;;;;2.08;1.95;;;;;;;;;;5066603;28;20213;-79
2023/08/02 13:36:52;;;;;;;3.38;1.80;;;;;;;;;;5053740;28;20230;-78
2023/08/02 13:39:19;;;;;;;1.73;1.63;;;;;;;;;;5065306;28;20224;-80
2023/08/02 13:41:46;;;;;;;1.83;1.40;;;;;;;;;;5070746;28;20233;-78
2023/08/02 13:44:16;;;;;;;1.98;1.88;;;;;;;;;;5064105;28;20197;-79
2023/08/02 13:46:44;;;;;;;1.60;1.50;;;;;;;;;;5061757;28;20235;-79
2023/08/02 13:49:11;;;;;;;2.45;1.88;;;;;;;;;;5055884;28;20714;-79
2023/08/02 13:51:39;;;;;;;1.83;1.73;;;;;;;;;;5063248;28;20213;-80
2023/08/02 13:54:06;;;;;;;2.60;2.08;;;;;;;;;;5063446;28;20214;-78
2023/08/02 13:56:33;;;;;;;2.50;2.08;;;;;;;;;;5062838;28;20647;-79
2023/08/02 13:59:00;;;;;;;2.45;2.25;;;;;;;;;;5063213;28;20222;-79
2023/08/02 14:01:27;;;;;;;2.15;1.95;;;;;;;;;;5056441;28;20205;-80
2023/08/02 14:03:55;;;;;;;2.67;2.15;;;;;;;;;;5051206;28;20276;-80
2023/08/02 14:06:22;;;;;;;3.83;2.60;;;;;;;;;;5050873;28;20222;-80
2023/08/02 14:08:49;;;;;;;2.40;2.20;;;;;;;;;;5053701;28;20226;-79
2023/08/02 14:11:16;;;;;;;3.22;2.80;;;;;;;;;;5063129;28;20651;-80
2023/08/02 14:13:44;;;;;;;2.40;2.20;;;;;;;;;;5065546;28;20229;-80
2023/08/02 14:16:11;;;;;;;3.80;3.10;;;;;;;;;;5075702;28;20213;-79
2023/08/02 14:18:38;;;;;;;4.47;2.70;;;;;;;;;;5078226;28;20241;-79
2023/08/02 14:21:06;;;;;;;4.53;2.85;;;;;;;;;;5075146;28;20225;-79
2023/08/02 14:23:33;;;;;;;2.78;2.58;;;;;;;;;;5072384;28;20237;-79
2023/08/02 14:26:00;;;;;;;4.03;2.60;;;;;;;;;;5056551;28;20317;-79
2023/08/02 14:28:27;;;;;;;4.53;3.10;;;;;;;;;;5065206;28;20704;-78
2023/08/02 14:30:55;;;;;;;2.58;2.33;;;;;;;;;;5061309;28;20209;-78
2023/08/02 14:33:22;;;;;;;2.92;2.63;;;;;;;;;;5071429;28;20651;-79
2023/08/02 14:35:49;;;;;;;2.78;2.30;;;;;;;;;;5073319;28;20208;-80
2023/08/02 14:38:17;;;;;;;3.25;1.80;;;;;;;;;;5090223;28;20228;-82
2023/08/02 14:40:45;;;;;;;3.47;2.17;;;;;;;;;;5066977;28;20216;-81
2023/08/02 14:43:12;;;;;;;2.50;1.83;;;;;;;;;;5069989;28;20714;-83
2023/08/02 14:45:39;;;;;;;2.28;1.98;;;;;;;;;;5064062;28;20313;-82
2023/08/02 14:48:06;;;;;;;4.05;2.47;;;;;;;;;;5059545;28;20238;-82